sensor_id;sensor_type;location;lat;lon;timestamp;temperature;humidity
16655;DHT22;8441;51.344;7.022;2023-04-29T00:02:03;11.20;99.90
16655;DHT22;8441;51.344;7.022;2023-04-29T00:04:30;11.20;99.90
16655;DHT22;8441;51.344;7.022;2023-04-29T00:06:57;11.20;99.90
16655;DHT22;8441;51.344;7.022;2023-04-29T00:09:24;11.20;99.90
16655;DHT22;8441;51.344;7.022;2023-04-29T00:11:51;11.10;99.90
16655;DHT22;8441;51.344;7.022;2023-04-29T00:14:18;11.10;99.90
16655;DHT22;8441;51.344;7.022;2023-04-29T00:16:45;11.20;99.90
16655;DHT22;8441;51.344;7.022;2023-04-29T00:19:14;11.20;99.90
16655;DHT22;8441;51.344;7.022;2023-04-29T00:21:43;11.10;99.90
16655;DHT22;8441;51.344;7.022;2023-04-29T00:24:10;11.10;99.90
16655;DHT22;8441;51.344;7.022;2023-04-29T00:26:37;11.10;99.90
16655;DHT22;8441;51.344;7.022;2023-04-29T00:29:06;11.10;99.90
16655;DHT22;8441;51.344;7.022;2023-04-29T00:31:33;11.10;99.90
16655;DHT22;8441;51.344;7.022;2023-04-29T00:34:01;11.00;99.90
16655;DHT22;8441;51.344;7.022;2023-04-29T00:36:30;11.00;99.90
16655;DHT22;8441;51.344;7.022;2023-04-29T00:38:57;10.90;99.90
16655;DHT22;8441;51.344;7.022;2023-04-29T00:41:25;10.90;99.90
16655;DHT22;8441;51.344;7.022;2023-04-29T00:43:52;10.80;99.90
16655;DHT22;8441;51.344;7.022;2023-04-29T00:46:19;10.80;99.90
16655;DHT22;8441;51.344;7.022;2023-04-29T00:48:46;10.70;99.90
16655;DHT22;8441;51.344;7.022;2023-04-29T00:51:14;10.60;99.90
16655;DHT22;8441;51.344;7.022;2023-04-29T00:53:44;10.50;99.90
16655;DHT22;8441;51.344;7.022;2023-04-29T00:56:11;10.50;99.90
16655;DHT22;8441;51.344;7.022;2023-04-29T00:58:39;10.40;99.90
16655;DHT22;8441;51.344;7.022;2023-04-29T01:01:10;10.40;99.90
16655;DHT22;8441;51.344;7.022;2023-04-29T01:03:38;10.40;99.90
16655;DHT22;8441;51.344;7.022;2023-04-29T01:06:19;10.30;99.90
16655;DHT22;8441;51.344;7.022;2023-04-29T01:09:03;10.30;99.90
16655;DHT22;8441;51.344;7.022;2023-04-29T01:11:34;10.30;99.90
16655;DHT22;8441;51.344;7.022;2023-04-29T01:14:05;10.20;99.90
16655;DHT22;8441;51.344;7.022;2023-04-29T01:16:37;10.20;99.90
16655;DHT22;8441;51.344;7.022;2023-04-29T01:19:17;10.20;99.90
16655;DHT22;8441;51.344;7.022;2023-04-29T01:21:46;10.20;99.90
16655;DHT22;8441;51.344;7.022;2023-04-29T01:24:16;10.20;99.90
16655;DHT22;8441;51.344;7.022;2023-04-29T01:26:48;10.20;99.90
16655;DHT22;8441;51.344;7.022;2023-04-29T01:29:29;10.20;99.90
16655;DHT22;8441;51.344;7.022;2023-04-29T01:32:04;10.20;99.90
16655;DHT22;8441;51.344;7.022;2023-04-29T01:34:39;10.20;99.90
16655;DHT22;8441;51.344;7.022;2023-04-29T01:37:14;10.10;99.90
16655;DHT22;8441;51.344;7.022;2023-04-29T01:39:54;10.10;99.90
16655;DHT22;8441;51.344;7.022;2023-04-29T01:42:25;10.10;99.90
16655;DHT22;8441;51.344;7.022;2023-04-29T01:44:56;10.00;99.90
16655;DHT22;8441;51.344;7.022;2023-04-29T01:47:26;10.00;99.90
16655;DHT22;8441;51.344;7.022;2023-04-29T01:49:55;9.90;99.90
16655;DHT22;8441;51.344;7.022;2023-04-29T01:52:22;9.90;99.90
16655;DHT22;8441;51.344;7.022;2023-04-29T01:54:51;9.90;99.90
16655;DHT22;8441;51.344;7.022;2023-04-29T01:57:18;9.90;99.90
16655;DHT22;8441;51.344;7.022;2023-04-29T01:59:45;9.90;99.90
16655;DHT22;8441;51.344;7.022;2023-04-29T02:02:12;9.80;99.90
16655;DHT22;8441;51.344;7.022;2023-04-29T02:04:40;9.80;99.90
16655;DHT22;8441;51.344;7.022;2023-04-29T02:07:08;9.80;99.90
16655;DHT22;8441;51.344;7.022;2023-04-29T02:09:35;9.80;99.90
16655;DHT22;8441;51.344;7.022;2023-04-29T02:12:04;9.80;99.90
16655;DHT22;8441;51.344;7.022;2023-04-29T02:14:32;9.80;99.90
16655;DHT22;8441;51.344;7.022;2023-04-29T02:17:00;9.80;99.90
16655;DHT22;8441;51.344;7.022;2023-04-29T02:19:28;9.80;99.90
16655;DHT22;8441;51.344;7.022;2023-04-29T02:21:55;9.80;99.90
16655;DHT22;8441;51.344;7.022;2023-04-29T02:24:22;9.80;99.90
16655;DHT22;8441;51.344;7.022;2023-04-29T02:26:49;9.80;99.90
16655;DHT22;8441;51.344;7.022;2023-04-29T02:29:18;9.80;99.90
16655;DHT22;8441;51.344;7.022;2023-04-29T02:31:45;9.70;99.90
16655;DHT22;8441;51.344;7.022;2023-04-29T02:34:12;9.70;99.90
16655;DHT22;8441;51.344;7.022;2023-04-29T02:36:39;9.70;99.90
16655;DHT22;8441;51.344;7.022;2023-04-29T02:39:07;9.60;99.90
16655;DHT22;8441;51.344;7.022;2023-04-29T02:41:34;9.60;99.90
16655;DHT22;8441;51.344;7.022;2023-04-29T02:44:01;9.60;99.90
16655;DHT22;8441;51.344;7.022;2023-04-29T02:46:30;9.50;99.90
16655;DHT22;8441;51.344;7.022;2023-04-29T02:48:58;9.60;99.90
16655;DHT22;8441;51.344;7.022;2023-04-29T02:51:25;9.60;99.90
16655;DHT22;8441;51.344;7.022;2023-04-29T02:53:52;9.50;99.90
16655;DHT22;8441;51.344;7.022;2023-04-29T02:56:20;9.40;99.90
16655;DHT22;8441;51.344;7.022;2023-04-29T02:58:48;9.40;99.90
16655;DHT22;8441;51.344;7.022;2023-04-29T03:01:15;9.40;99.90
16655;DHT22;8441;51.344;7.022;2023-04-29T03:03:44;9.40;99.90
16655;DHT22;8441;51.344;7.022;2023-04-29T03:06:11;9.40;99.90
16655;DHT22;8441;51.344;7.022;2023-04-29T03:08:38;9.40;99.90
16655;DHT22;8441;51.344;7.022;2023-04-29T03:11:06;9.40;99.90
16655;DHT22;8441;51.344;7.022;2023-04-29T03:13:33;9.30;99.90
16655;DHT22;8441;51.344;7.022;2023-04-29T03:16:00;9.30;99.90
16655;DHT22;8441;51.344;7.022;2023-04-29T03:18:27;9.30;99.90
16655;DHT22;8441;51.344;7.022;2023-04-29T03:20:56;9.30;99.90
16655;DHT22;8441;51.344;7.022;2023-04-29T03:23:23;9.30;99.90
16655;DHT22;8441;51.344;7.022;2023-04-29T03:25:51;9.20;99.90
16655;DHT22;8441;51.344;7.022;2023-04-29T03:28:20;9.20;99.90
16655;DHT22;8441;51.344;7.022;2023-04-29T03:30:47;9.10;99.90
16655;DHT22;8441;51.344;7.022;2023-04-29T03:33:14;9.20;99.90
16655;DHT22;8441;51.344;7.022;2023-04-29T03:35:41;9.20;99.90
16655;DHT22;8441;51.344;7.022;2023-04-29T03:38:11;9.20;99.90
16655;DHT22;8441;51.344;7.022;2023-04-29T03:40:39;9.20;99.90
16655;DHT22;8441;51.344;7.022;2023-04-29T03:43:06;9.30;99.90
16655;DHT22;8441;51.344;7.022;2023-04-29T03:45:34;9.30;99.90
16655;DHT22;8441;51.344;7.022;2023-04-29T03:48:01;9.30;99.90
16655;DHT22;8441;51.344;7.022;2023-04-29T03:50:28;9.30;99.90
16655;DHT22;8441;51.344;7.022;2023-04-29T03:52:56;9.20;99.90
16655;DHT22;8441;51.344;7.022;2023-04-29T03:55:25;9.30;99.90
16655;DHT22;8441;51.344;7.022;2023-04-29T03:57:52;9.20;99.90
16655;DHT22;8441;51.344;7.022;2023-04-29T04:00:19;9.20;99.90
16655;DHT22;8441;51.344;7.022;2023-04-29T04:02:47;9.20;99.90
16655;DHT22;8441;51.344;7.022;2023-04-29T04:05:14;9.20;99.90
16655;DHT22;8441;51.344;7.022;2023-04-29T04:07:41;9.20;99.90
16655;DHT22;8441;51.344;7.022;2023-04-29T04:10:09;9.10;99.90
16655;DHT22;8441;51.344;7.022;2023-04-29T04:12:37;9.10;99.90
16655;DHT22;8441;51.344;7.022;2023-04-29T04:15:05;9.10;99.90
16655;DHT22;8441;51.344;7.022;2023-04-29T04:17:32;9.10;99.90
16655;DHT22;8441;51.344;7.022;2023-04-29T04:20:00;9.10;99.90
16655;DHT22;8441;51.344;7.022;2023-04-29T04:22:27;9.20;99.90
16655;DHT22;8441;51.344;7.022;2023-04-29T04:24:54;9.20;99.90
16655;DHT22;8441;51.344;7.022;2023-04-29T04:27:21;9.20;99.90
16655;DHT22;8441;51.344;7.022;2023-04-29T04:29:54;9.20;99.90
16655;DHT22;8441;51.344;7.022;2023-04-29T04:32:21;9.20;99.90
16655;DHT22;8441;51.344;7.022;2023-04-29T04:34:48;9.20;99.90
16655;DHT22;8441;51.344;7.022;2023-04-29T04:37:16;9.20;99.90
16655;DHT22;8441;51.344;7.022;2023-04-29T04:39:43;9.20;99.90
16655;DHT22;8441;51.344;7.022;2023-04-29T04:42:10;9.20;99.90
16655;DHT22;8441;51.344;7.022;2023-04-29T04:44:38;9.10;99.90
16655;DHT22;8441;51.344;7.022;2023-04-29T04:47:06;9.10;99.90
16655;DHT22;8441;51.344;7.022;2023-04-29T04:49:33;9.10;99.90
16655;DHT22;8441;51.344;7.022;2023-04-29T04:52:01;9.00;99.90
16655;DHT22;8441;51.344;7.022;2023-04-29T04:54:28;9.00;99.90
16655;DHT22;8441;51.344;7.022;2023-04-29T04:56:55;9.10;99.90
16655;DHT22;8441;51.344;7.022;2023-04-29T04:59:22;9.00;99.90
16655;DHT22;8441;51.344;7.022;2023-04-29T05:01:50;9.00;99.90
16655;DHT22;8441;51.344;7.022;2023-04-29T05:04:18;9.00;99.90
16655;DHT22;8441;51.344;7.022;2023-04-29T05:06:45;9.00;99.90
16655;DHT22;8441;51.344;7.022;2023-04-29T05:09:13;9.00;99.90
16655;DHT22;8441;51.344;7.022;2023-04-29T05:11:40;9.00;99.90
16655;DHT22;8441;51.344;7.022;2023-04-29T05:14:07;9.00;99.90
16655;DHT22;8441;51.344;7.022;2023-04-29T05:16:34;9.00;99.90
16655;DHT22;8441;51.344;7.022;2023-04-29T05:19:01;9.00;99.90
16655;DHT22;8441;51.344;7.022;2023-04-29T05:21:30;9.00;99.90
16655;DHT22;8441;51.344;7.022;2023-04-29T05:23:57;9.00;99.90
16655;DHT22;8441;51.344;7.022;2023-04-29T05:26:24;9.00;99.90
16655;DHT22;8441;51.344;7.022;2023-04-29T05:28:51;9.00;99.90
16655;DHT22;8441;51.344;7.022;2023-04-29T05:31:20;9.00;99.90
16655;DHT22;8441;51.344;7.022;2023-04-29T05:33:47;9.00;99.90
16655;DHT22;8441;51.344;7.022;2023-04-29T05:36:14;9.10;99.90
16655;DHT22;8441;51.344;7.022;2023-04-29T05:38:43;9.00;99.90
16655;DHT22;8441;51.344;7.022;2023-04-29T05:41:10;9.10;99.90
16655;DHT22;8441;51.344;7.022;2023-04-29T05:43:38;9.10;99.90
16655;DHT22;8441;51.344;7.022;2023-04-29T05:46:05;9.20;99.90
16655;DHT22;8441;51.344;7.022;2023-04-29T05:48:33;9.20;99.90
16655;DHT22;8441;51.344;7.022;2023-04-29T05:51:00;9.10;99.90
16655;DHT22;8441;51.344;7.022;2023-04-29T05:53:28;9.20;99.90
16655;DHT22;8441;51.344;7.022;2023-04-29T05:55:57;9.10;99.90
16655;DHT22;8441;51.344;7.022;2023-04-29T05:58:24;9.20;99.90
16655;DHT22;8441;51.344;7.022;2023-04-29T06:00:51;9.20;99.90
16655;DHT22;8441;51.344;7.022;2023-04-29T06:03:18;9.20;99.90
16655;DHT22;8441;51.344;7.022;2023-04-29T06:05:46;9.20;99.90
16655;DHT22;8441;51.344;7.022;2023-04-29T06:08:13;9.30;99.90
16655;DHT22;8441;51.344;7.022;2023-04-29T06:10:40;9.30;99.90
16655;DHT22;8441;51.344;7.022;2023-04-29T06:13:09;9.30;99.90
16655;DHT22;8441;51.344;7.022;2023-04-29T06:15:36;9.30;99.90
16655;DHT22;8441;51.344;7.022;2023-04-29T06:18:03;9.40;99.90
16655;DHT22;8441;51.344;7.022;2023-04-29T06:20:31;9.40;99.90
16655;DHT22;8441;51.344;7.022;2023-04-29T06:22:58;9.40;99.90
16655;DHT22;8441;51.344;7.022;2023-04-29T06:25:26;9.40;99.90
16655;DHT22;8441;51.344;7.022;2023-04-29T06:27:53;9.40;99.90
16655;DHT22;8441;51.344;7.022;2023-04-29T06:30:22;9.40;99.90
16655;DHT22;8441;51.344;7.022;2023-04-29T06:32:49;9.30;99.90
16655;DHT22;8441;51.344;7.022;2023-04-29T06:35:16;9.30;99.90
16655;DHT22;8441;51.344;7.022;2023-04-29T06:37:43;9.30;99.90
16655;DHT22;8441;51.344;7.022;2023-04-29T06:40:11;9.40;99.90
16655;DHT22;8441;51.344;7.022;2023-04-29T06:42:38;9.40;99.90
16655;DHT22;8441;51.344;7.022;2023-04-29T06:45:06;9.50;99.90
16655;DHT22;8441;51.344;7.022;2023-04-29T06:47:35;9.50;99.90
16655;DHT22;8441;51.344;7.022;2023-04-29T06:50:02;9.50;99.90
16655;DHT22;8441;51.344;7.022;2023-04-29T06:52:29;9.60;99.90
16655;DHT22;8441;51.344;7.022;2023-04-29T06:54:58;9.50;99.90
16655;DHT22;8441;51.344;7.022;2023-04-29T06:57:25;9.60;99.90
16655;DHT22;8441;51.344;7.022;2023-04-29T06:59:52;9.60;99.90
16655;DHT22;8441;51.344;7.022;2023-04-29T07:02:19;9.60;99.90
16655;DHT22;8441;51.344;7.022;2023-04-29T07:04:48;9.60;99.90
16655;DHT22;8441;51.344;7.022;2023-04-29T07:07:15;9.60;99.90
16655;DHT22;8441;51.344;7.022;2023-04-29T07:09:43;9.70;99.90
16655;DHT22;8441;51.344;7.022;2023-04-29T07:12:10;9.70;99.90
16655;DHT22;8441;51.344;7.022;2023-04-29T07:14:37;9.80;99.90
16655;DHT22;8441;51.344;7.022;2023-04-29T07:17:05;9.80;99.90
16655;DHT22;8441;51.344;7.022;2023-04-29T07:19:32;9.80;99.90
16655;DHT22;8441;51.344;7.022;2023-04-29T07:22:01;9.80;99.90
16655;DHT22;8441;51.344;7.022;2023-04-29T07:24:28;9.70;99.90
16655;DHT22;8441;51.344;7.022;2023-04-29T07:26:55;9.80;99.90
16655;DHT22;8441;51.344;7.022;2023-04-29T07:29:23;9.90;99.90
16655;DHT22;8441;51.344;7.022;2023-04-29T07:31:50;10.00;99.90
16655;DHT22;8441;51.344;7.022;2023-04-29T07:34:17;10.10;99.90
16655;DHT22;8441;51.344;7.022;2023-04-29T07:36:44;10.10;99.90
16655;DHT22;8441;51.344;7.022;2023-04-29T07:39:12;10.10;99.90
16655;DHT22;8441;51.344;7.022;2023-04-29T07:41:41;10.10;99.90
16655;DHT22;8441;51.344;7.022;2023-04-29T07:44:08;10.00;99.90
16655;DHT22;8441;51.344;7.022;2023-04-29T07:46:35;10.00;99.90
16655;DHT22;8441;51.344;7.022;2023-04-29T07:49:02;9.80;99.90
16655;DHT22;8441;51.344;7.022;2023-04-29T07:51:31;9.70;99.90
16655;DHT22;8441;51.344;7.022;2023-04-29T07:53:58;9.70;99.90
16655;DHT22;8441;51.344;7.022;2023-04-29T07:56:27;9.60;99.90
16655;DHT22;8441;51.344;7.022;2023-04-29T07:58:54;9.60;99.90
16655;DHT22;8441;51.344;7.022;2023-04-29T08:01:21;9.50;99.90
16655;DHT22;8441;51.344;7.022;2023-04-29T08:03:48;9.40;99.90
16655;DHT22;8441;51.344;7.022;2023-04-29T08:06:15;9.50;99.90
16655;DHT22;8441;51.344;7.022;2023-04-29T08:08:45;9.40;99.90
16655;DHT22;8441;51.344;7.022;2023-04-29T08:11:16;9.50;99.90
16655;DHT22;8441;51.344;7.022;2023-04-29T08:13:44;9.40;99.90
16655;DHT22;8441;51.344;7.022;2023-04-29T08:16:12;9.40;99.90
16655;DHT22;8441;51.344;7.022;2023-04-29T08:18:39;9.40;99.90
16655;DHT22;8441;51.344;7.022;2023-04-29T08:21:07;9.40;99.90
16655;DHT22;8441;51.344;7.022;2023-04-29T08:23:36;9.50;99.90
16655;DHT22;8441;51.344;7.022;2023-04-29T08:26:03;9.50;99.90
16655;DHT22;8441;51.344;7.022;2023-04-29T08:28:30;9.40;99.90
16655;DHT22;8441;51.344;7.022;2023-04-29T08:30:59;9.40;99.90
16655;DHT22;8441;51.344;7.022;2023-04-29T08:33:26;9.30;99.90
16655;DHT22;8441;51.344;7.022;2023-04-29T08:35:57;9.30;99.90
16655;DHT22;8441;51.344;7.022;2023-04-29T08:38:25;9.30;99.90
16655;DHT22;8441;51.344;7.022;2023-04-29T08:40:52;9.30;99.90
16655;DHT22;8441;51.344;7.022;2023-04-29T08:43:21;9.20;99.90
16655;DHT22;8441;51.344;7.022;2023-04-29T08:45:48;9.30;99.90
16655;DHT22;8441;51.344;7.022;2023-04-29T08:48:17;9.30;99.90
16655;DHT22;8441;51.344;7.022;2023-04-29T08:50:45;9.20;99.90
16655;DHT22;8441;51.344;7.022;2023-04-29T08:53:13;9.20;99.90
16655;DHT22;8441;51.344;7.022;2023-04-29T08:55:41;9.20;99.90
16655;DHT22;8441;51.344;7.022;2023-04-29T08:58:08;9.20;99.90
16655;DHT22;8441;51.344;7.022;2023-04-29T09:00:37;9.20;99.90
16655;DHT22;8441;51.344;7.022;2023-04-29T09:03:12;9.20;99.90
16655;DHT22;8441;51.344;7.022;2023-04-29T09:05:42;9.30;99.90
16655;DHT22;8441;51.344;7.022;2023-04-29T09:08:11;9.30;99.90
16655;DHT22;8441;51.344;7.022;2023-04-29T09:10:41;9.30;99.90
16655;DHT22;8441;51.344;7.022;2023-04-29T09:13:11;9.30;99.90
16655;DHT22;8441;51.344;7.022;2023-04-29T09:15:48;9.30;99.90
16655;DHT22;8441;51.344;7.022;2023-04-29T09:18:43;9.20;99.90
16655;DHT22;8441;51.344;7.022;2023-04-29T09:21:16;9.30;99.90
16655;DHT22;8441;51.344;7.022;2023-04-29T09:23:44;9.30;99.90
16655;DHT22;8441;51.344;7.022;2023-04-29T09:26:12;9.40;99.90
16655;DHT22;8441;51.344;7.022;2023-04-29T09:28:40;9.40;99.90
16655;DHT22;8441;51.344;7.022;2023-04-29T09:31:09;9.50;99.90
16655;DHT22;8441;51.344;7.022;2023-04-29T09:33:49;9.60;99.90
16655;DHT22;8441;51.344;7.022;2023-04-29T09:36:37;9.60;99.90
16655;DHT22;8441;51.344;7.022;2023-04-29T09:39:04;9.60;99.90
16655;DHT22;8441;51.344;7.022;2023-04-29T09:41:37;9.60;99.90
16655;DHT22;8441;51.344;7.022;2023-04-29T09:44:06;9.50;99.90
16655;DHT22;8441;51.344;7.022;2023-04-29T09:46:33;9.50;99.90
16655;DHT22;8441;51.344;7.022;2023-04-29T09:49:01;9.60;99.90
16655;DHT22;8441;51.344;7.022;2023-04-29T09:51:29;9.70;99.90
16655;DHT22;8441;51.344;7.022;2023-04-29T09:53:59;9.80;99.90
16655;DHT22;8441;51.344;7.022;2023-04-29T09:56:27;9.80;99.90
16655;DHT22;8441;51.344;7.022;2023-04-29T09:58:55;9.90;99.90
16655;DHT22;8441;51.344;7.022;2023-04-29T10:01:33;9.90;99.90
16655;DHT22;8441;51.344;7.022;2023-04-29T10:04:02;10.00;99.90
16655;DHT22;8441;51.344;7.022;2023-04-29T10:06:30;10.10;99.90
16655;DHT22;8441;51.344;7.022;2023-04-29T10:08:59;10.00;99.90
16655;DHT22;8441;51.344;7.022;2023-04-29T10:11:26;10.00;99.90
16655;DHT22;8441;51.344;7.022;2023-04-29T10:13:54;9.90;99.90
16655;DHT22;8441;51.344;7.022;2023-04-29T10:16:27;10.00;99.90
16655;DHT22;8441;51.344;7.022;2023-04-29T10:18:55;10.10;99.90
16655;DHT22;8441;51.344;7.022;2023-04-29T10:21:28;10.20;99.90
16655;DHT22;8441;51.344;7.022;2023-04-29T10:23:57;10.30;99.90
16655;DHT22;8441;51.344;7.022;2023-04-29T10:26:27;10.30;99.90
16655;DHT22;8441;51.344;7.022;2023-04-29T10:28:55;10.30;99.90
16655;DHT22;8441;51.344;7.022;2023-04-29T10:31:25;10.40;99.90
16655;DHT22;8441;51.344;7.022;2023-04-29T10:33:55;10.40;99.90
16655;DHT22;8441;51.344;7.022;2023-04-29T10:36:23;10.40;99.90
16655;DHT22;8441;51.344;7.022;2023-04-29T10:38:54;10.50;99.90
16655;DHT22;8441;51.344;7.022;2023-04-29T10:41:26;10.70;99.90
16655;DHT22;8441;51.344;7.022;2023-04-29T10:43:54;10.90;99.90
16655;DHT22;8441;51.344;7.022;2023-04-29T10:46:22;11.30;99.90
16655;DHT22;8441;51.344;7.022;2023-04-29T10:48:56;11.60;99.90
16655;DHT22;8441;51.344;7.022;2023-04-29T10:51:31;11.80;99.90
16655;DHT22;8441;51.344;7.022;2023-04-29T10:54:00;12.00;99.90
16655;DHT22;8441;51.344;7.022;2023-04-29T10:56:47;12.20;99.90
16655;DHT22;8441;51.344;7.022;2023-04-29T10:59:16;12.40;99.90
16655;DHT22;8441;51.344;7.022;2023-04-29T11:01:47;12.50;99.90
16655;DHT22;8441;51.344;7.022;2023-04-29T11:04:15;12.80;99.90
16655;DHT22;8441;51.344;7.022;2023-04-29T11:06:47;13.00;99.90
16655;DHT22;8441;51.344;7.022;2023-04-29T11:09:23;13.00;99.90
16655;DHT22;8441;51.344;7.022;2023-04-29T11:11:59;13.10;99.90
16655;DHT22;8441;51.344;7.022;2023-04-29T11:14:36;13.30;99.90
16655;DHT22;8441;51.344;7.022;2023-04-29T11:17:07;13.40;99.90
16655;DHT22;8441;51.344;7.022;2023-04-29T11:19:39;13.40;99.90
16655;DHT22;8441;51.344;7.022;2023-04-29T11:22:14;13.20;99.90
16655;DHT22;8441;51.344;7.022;2023-04-29T11:24:52;13.10;99.90
16655;DHT22;8441;51.344;7.022;2023-04-29T11:27:22;13.10;99.90
16655;DHT22;8441;51.344;7.022;2023-04-29T11:29:51;13.20;99.90
16655;DHT22;8441;51.344;7.022;2023-04-29T11:32:20;13.20;99.90
16655;DHT22;8441;51.344;7.022;2023-04-29T11:34:48;13.60;99.90
16655;DHT22;8441;51.344;7.022;2023-04-29T11:37:20;14.10;99.90
16655;DHT22;8441;51.344;7.022;2023-04-29T11:39:48;14.20;99.90
16655;DHT22;8441;51.344;7.022;2023-04-29T11:42:20;14.20;99.90
16655;DHT22;8441;51.344;7.022;2023-04-29T11:44:50;14.30;99.90
16655;DHT22;8441;51.344;7.022;2023-04-29T11:47:19;14.40;99.90
16655;DHT22;8441;51.344;7.022;2023-04-29T11:49:47;14.40;99.90
16655;DHT22;8441;51.344;7.022;2023-04-29T11:52:14;14.50;99.90
16655;DHT22;8441;51.344;7.022;2023-04-29T11:54:42;14.70;99.90
16655;DHT22;8441;51.344;7.022;2023-04-29T11:57:09;14.80;99.90
16655;DHT22;8441;51.344;7.022;2023-04-29T11:59:41;14.40;99.90
16655;DHT22;8441;51.344;7.022;2023-04-29T12:02:11;14.60;99.90
16655;DHT22;8441;51.344;7.022;2023-04-29T12:04:44;14.80;99.90
16655;DHT22;8441;51.344;7.022;2023-04-29T12:07:13;15.00;99.90
16655;DHT22;8441;51.344;7.022;2023-04-29T12:09:41;15.20;99.90
16655;DHT22;8441;51.344;7.022;2023-04-29T12:12:09;15.20;99.90
16655;DHT22;8441;51.344;7.022;2023-04-29T12:14:39;15.30;99.90
16655;DHT22;8441;51.344;7.022;2023-04-29T12:17:07;15.40;99.90
16655;DHT22;8441;51.344;7.022;2023-04-29T12:19:35;15.20;99.90
16655;DHT22;8441;51.344;7.022;2023-04-29T12:22:03;15.20;99.90
16655;DHT22;8441;51.344;7.022;2023-04-29T12:24:33;15.20;99.90
16655;DHT22;8441;51.344;7.022;2023-04-29T12:27:01;15.20;99.90
16655;DHT22;8441;51.344;7.022;2023-04-29T12:29:28;15.10;99.90
16655;DHT22;8441;51.344;7.022;2023-04-29T12:31:57;14.70;99.90
16655;DHT22;8441;51.344;7.022;2023-04-29T12:34:24;14.40;99.90
16655;DHT22;8441;51.344;7.022;2023-04-29T12:36:54;14.00;99.90
16655;DHT22;8441;51.344;7.022;2023-04-29T12:39:22;14.00;99.90
16655;DHT22;8441;51.344;7.022;2023-04-29T12:41:54;14.00;99.90
16655;DHT22;8441;51.344;7.022;2023-04-29T12:44:22;13.80;99.90
16655;DHT22;8441;51.344;7.022;2023-04-29T12:46:49;13.70;99.90
16655;DHT22;8441;51.344;7.022;2023-04-29T12:49:23;13.80;99.90
16655;DHT22;8441;51.344;7.022;2023-04-29T12:51:50;13.90;99.90
16655;DHT22;8441;51.344;7.022;2023-04-29T12:54:17;14.10;99.90
16655;DHT22;8441;51.344;7.022;2023-04-29T12:56:45;14.00;99.90
16655;DHT22;8441;51.344;7.022;2023-04-29T12:59:12;14.00;99.90
16655;DHT22;8441;51.344;7.022;2023-04-29T13:01:39;14.20;99.90
16655;DHT22;8441;51.344;7.022;2023-04-29T13:04:06;14.30;99.90
16655;DHT22;8441;51.344;7.022;2023-04-29T13:06:37;14.30;99.90
16655;DHT22;8441;51.344;7.022;2023-04-29T13:09:06;14.10;99.90
16655;DHT22;8441;51.344;7.022;2023-04-29T13:11:36;13.90;99.90
16655;DHT22;8441;51.344;7.022;2023-04-29T13:14:03;14.00;99.90
16655;DHT22;8441;51.344;7.022;2023-04-29T13:16:31;14.00;99.90
16655;DHT22;8441;51.344;7.022;2023-04-29T13:18:59;14.10;99.90
16655;DHT22;8441;51.344;7.022;2023-04-29T13:21:26;14.40;99.90
16655;DHT22;8441;51.344;7.022;2023-04-29T13:23:55;14.60;99.90
16655;DHT22;8441;51.344;7.022;2023-04-29T13:26:22;14.90;99.90
16655;DHT22;8441;51.344;7.022;2023-04-29T13:28:49;14.90;99.90
16655;DHT22;8441;51.344;7.022;2023-04-29T13:31:17;14.90;99.90
16655;DHT22;8441;51.344;7.022;2023-04-29T13:33:44;14.80;99.90
16655;DHT22;8441;51.344;7.022;2023-04-29T13:36:12;14.80;99.90
16655;DHT22;8441;51.344;7.022;2023-04-29T13:38:39;14.80;99.90
16655;DHT22;8441;51.344;7.022;2023-04-29T13:41:09;14.70;99.90
16655;DHT22;8441;51.344;7.022;2023-04-29T13:43:37;14.70;99.90
16655;DHT22;8441;51.344;7.022;2023-04-29T13:46:05;14.70;99.90
16655;DHT22;8441;51.344;7.022;2023-04-29T13:48:32;14.70;99.90
16655;DHT22;8441;51.344;7.022;2023-04-29T13:50:59;14.40;99.90
16655;DHT22;8441;51.344;7.022;2023-04-29T13:53:26;14.20;99.90
16655;DHT22;8441;51.344;7.022;2023-04-29T13:55:54;13.80;99.90
16655;DHT22;8441;51.344;7.022;2023-04-29T13:58:22;13.80;99.90
16655;DHT22;8441;51.344;7.022;2023-04-29T14:00:49;13.60;99.90
16655;DHT22;8441;51.344;7.022;2023-04-29T14:03:17;13.70;99.90
16655;DHT22;8441;51.344;7.022;2023-04-29T14:05:44;13.90;99.90
16655;DHT22;8441;51.344;7.022;2023-04-29T14:08:11;14.10;99.90
16655;DHT22;8441;51.344;7.022;2023-04-29T14:10:38;14.20;99.90
16655;DHT22;8441;51.344;7.022;2023-04-29T14:13:06;14.30;99.90
16655;DHT22;8441;51.344;7.022;2023-04-29T14:15:34;14.20;99.90
16655;DHT22;8441;51.344;7.022;2023-04-29T14:18:01;14.10;99.90
16655;DHT22;8441;51.344;7.022;2023-04-29T14:20:28;14.00;99.90
16655;DHT22;8441;51.344;7.022;2023-04-29T14:22:56;14.00;99.90
16655;DHT22;8441;51.344;7.022;2023-04-29T14:25:23;13.90;99.90
16655;DHT22;8441;51.344;7.022;2023-04-29T14:27:50;14.00;99.90
16655;DHT22;8441;51.344;7.022;2023-04-29T14:30:17;14.10;99.90
16655;DHT22;8441;51.344;7.022;2023-04-29T14:32:46;14.40;99.90
16655;DHT22;8441;51.344;7.022;2023-04-29T14:35:13;14.50;99.90
16655;DHT22;8441;51.344;7.022;2023-04-29T14:37:40;14.50;99.90
16655;DHT22;8441;51.344;7.022;2023-04-29T14:40:08;14.40;99.90
16655;DHT22;8441;51.344;7.022;2023-04-29T14:42:35;14.50;99.90
16655;DHT22;8441;51.344;7.022;2023-04-29T14:45:03;14.50;99.90
16655;DHT22;8441;51.344;7.022;2023-04-29T14:47:31;14.50;99.90
16655;DHT22;8441;51.344;7.022;2023-04-29T14:50:00;14.70;99.90
16655;DHT22;8441;51.344;7.022;2023-04-29T14:52:27;14.70;99.90
16655;DHT22;8441;51.344;7.022;2023-04-29T14:54:54;14.70;99.90
16655;DHT22;8441;51.344;7.022;2023-04-29T14:57:21;14.60;99.90
16655;DHT22;8441;51.344;7.022;2023-04-29T14:59:48;14.60;99.90
16655;DHT22;8441;51.344;7.022;2023-04-29T15:02:16;14.40;99.90
16655;DHT22;8441;51.344;7.022;2023-04-29T15:04:43;14.30;99.90
16655;DHT22;8441;51.344;7.022;2023-04-29T15:07:12;14.20;99.90
16655;DHT22;8441;51.344;7.022;2023-04-29T15:09:40;14.20;99.90
16655;DHT22;8441;51.344;7.022;2023-04-29T15:12:07;14.10;99.90
16655;DHT22;8441;51.344;7.022;2023-04-29T15:14:35;14.30;99.90
16655;DHT22;8441;51.344;7.022;2023-04-29T15:17:02;14.40;99.90
16655;DHT22;8441;51.344;7.022;2023-04-29T15:19:29;14.60;99.90
16655;DHT22;8441;51.344;7.022;2023-04-29T15:21:56;14.60;99.90
16655;DHT22;8441;51.344;7.022;2023-04-29T15:24:25;14.70;99.90
16655;DHT22;8441;51.344;7.022;2023-04-29T15:26:52;15.10;99.90
16655;DHT22;8441;51.344;7.022;2023-04-29T15:29:19;15.20;99.90
16655;DHT22;8441;51.344;7.022;2023-04-29T15:31:46;15.40;99.90
16655;DHT22;8441;51.344;7.022;2023-04-29T15:34:13;15.30;99.90
16655;DHT22;8441;51.344;7.022;2023-04-29T15:36:41;15.40;99.90
16655;DHT22;8441;51.344;7.022;2023-04-29T15:39:08;15.50;99.90
16655;DHT22;8441;51.344;7.022;2023-04-29T15:41:38;15.50;99.90
16655;DHT22;8441;51.344;7.022;2023-04-29T15:44:05;15.40;99.90
16655;DHT22;8441;51.344;7.022;2023-04-29T15:46:32;15.20;99.90
16655;DHT22;8441;51.344;7.022;2023-04-29T15:48:59;14.90;99.90
16655;DHT22;8441;51.344;7.022;2023-04-29T15:51:27;14.80;99.90
16655;DHT22;8441;51.344;7.022;2023-04-29T15:53:54;14.70;99.90
16655;DHT22;8441;51.344;7.022;2023-04-29T15:56:21;14.80;99.90
16655;DHT22;8441;51.344;7.022;2023-04-29T15:58:50;15.10;99.90
16655;DHT22;8441;51.344;7.022;2023-04-29T16:01:17;15.10;99.90
16655;DHT22;8441;51.344;7.022;2023-04-29T16:03:44;15.40;99.90